createdAt,value
2023-02-08T00:00:45.230Z,66.10
2023-02-08T00:03:12.718Z,57.00
2023-02-08T00:05:42.337Z,55.20
2023-02-08T00:08:09.466Z,54.20
2023-02-08T00:10:36.419Z,57.90
2023-02-08T00:13:03.377Z,71.20
2023-02-08T00:15:30.261Z,53.50
2023-02-08T00:17:57.165Z,51.80
2023-02-08T00:20:24.225Z,65.20
2023-02-08T00:22:52.578Z,54.90
2023-02-08T00:25:21.812Z,60.10
2023-02-08T00:27:48.788Z,50.60
2023-02-08T00:30:16.217Z,71.50
2023-02-08T00:32:43.065Z,67.20
2023-02-08T00:35:10.028Z,67.90
2023-02-08T00:37:36.974Z,69.00
2023-02-08T00:40:06.072Z,59.70
2023-02-08T00:42:33.020Z,58.50
2023-02-08T00:44:59.969Z,61.20
2023-02-08T00:47:26.864Z,57.20
2023-02-08T00:49:53.914Z,55.80
2023-02-08T00:52:21.176Z,60.10
2023-02-08T00:54:48.133Z,55.70
2023-02-08T00:57:15.280Z,61.80
2023-02-08T00:59:42.679Z,53.80
2023-02-08T01:02:09.607Z,64.90
2023-02-08T01:04:36.871Z,56.40
2023-02-08T01:07:05.299Z,58.70
2023-02-08T01:09:32.669Z,63.90
2023-02-08T01:11:59.752Z,65.20
2023-02-08T01:14:27.011Z,66.10
2023-02-08T01:16:53.873Z,68.10
2023-02-08T01:19:20.920Z,67.20
2023-02-08T01:21:49.436Z,63.40
2023-02-08T01:24:16.302Z,62.20
2023-02-08T01:26:44.399Z,62.00
2023-02-08T01:29:11.240Z,61.10
2023-02-08T01:31:41.500Z,64.30
2023-02-08T01:34:09.841Z,59.90
2023-02-08T01:36:37.968Z,69.50
2023-02-08T01:39:06.404Z,63.70
2023-02-08T01:41:36.150Z,72.20
2023-02-08T01:46:43.686Z,95.40
2023-02-08T01:49:10.452Z,82.30
2023-02-08T01:51:47.313Z,82.80
2023-02-08T01:54:17.563Z,98.00
2023-02-08T01:56:47.308Z,69.40
2023-02-08T01:59:23.680Z,75.60
2023-02-08T02:01:54.549Z,78.00
2023-02-08T02:04:22.036Z,84.80
2023-02-08T02:06:53.569Z,91.50
2023-02-08T02:09:26.609Z,91.70
2023-02-08T02:11:54.844Z,87.90
2023-02-08T02:14:22.745Z,89.40
2023-02-08T02:16:49.799Z,82.80
2023-02-08T02:19:40.668Z,89.40
2023-02-08T02:22:22.877Z,90.10
2023-02-08T02:25:04.775Z,83.60
2023-02-08T02:27:59.196Z,76.80
2023-02-08T02:30:45.090Z,78.50
2023-02-08T02:33:24.013Z,73.10
2023-02-08T02:36:03.459Z,81.30
2023-02-08T02:39:25.912Z,84.40
2023-02-08T02:43:02.209Z,105.60
2023-02-08T02:45:34.862Z,87.20
2023-02-08T02:48:11.709Z,70.10
2023-02-08T02:51:14.074Z,73.50
2023-02-08T02:54:00.157Z,80.20
2023-02-08T02:56:37.225Z,94.90
2023-02-08T02:59:10.231Z,102.90
2023-02-08T03:01:38.879Z,89.70
2023-02-08T03:04:19.434Z,110.00
2023-02-08T03:06:52.608Z,146.80
2023-02-08T03:09:28.414Z,181.10
2023-02-08T03:12:29.549Z,135.60
2023-02-08T03:15:13.398Z,117.30
2023-02-08T03:17:54.322Z,113.90
2023-02-08T03:20:53.794Z,106.40
2023-02-08T03:23:49.515Z,100.20
2023-02-08T03:26:23.952Z,105.40
2023-02-08T03:28:58.918Z,98.30
2023-02-08T03:31:38.150Z,104.80
2023-02-08T03:34:14.383Z,104.80
2023-02-08T03:37:04.794Z,101.70
2023-02-08T03:39:35.792Z,95.60
2023-02-08T03:42:09.511Z,102.80
2023-02-08T03:44:44.517Z,97.20
2023-02-08T03:47:22.086Z,83.20
2023-02-08T03:49:52.850Z,83.30
2023-02-08T03:52:20.183Z,88.70
2023-02-08T03:54:54.863Z,72.00
2023-02-08T03:57:26.154Z,71.30
2023-02-08T04:00:07.623Z,88.40
2023-02-08T04:02:46.569Z,92.30
2023-02-08T04:05:13.986Z,100.60
2023-02-08T04:07:40.992Z,97.80
2023-02-08T04:10:08.484Z,114.30
2023-02-08T04:12:36.076Z,78.00
2023-02-08T04:15:03.095Z,75.10
2023-02-08T04:17:30.000Z,68.30
2023-02-08T04:19:56.794Z,61.80
2023-02-08T04:22:23.823Z,63.40
2023-02-08T04:24:51.003Z,58.00
2023-02-08T04:27:17.892Z,64.00
2023-02-08T04:29:44.707Z,58.20
2023-02-08T04:32:11.988Z,52.70
2023-02-08T04:34:39.882Z,50.00
2023-02-08T04:37:08.332Z,44.20
2023-02-08T04:39:35.489Z,44.10
2023-02-08T04:42:03.365Z,44.00
2023-02-08T04:44:33.064Z,45.80
2023-02-08T04:47:00.894Z,47.70
2023-02-08T04:49:27.835Z,43.20
2023-02-08T04:51:54.666Z,44.50
2023-02-08T04:54:22.123Z,43.60
2023-02-08T04:56:48.958Z,40.20
2023-02-08T04:59:16.102Z,42.60
2023-02-08T05:01:42.966Z,50.10
2023-02-08T05:04:10.006Z,47.10
2023-02-08T05:06:36.945Z,45.30
2023-02-08T05:09:03.961Z,42.00
2023-02-08T05:11:30.992Z,38.20
2023-02-08T05:13:57.857Z,38.30
2023-02-08T05:16:24.832Z,36.80
2023-02-08T05:18:51.668Z,44.50
2023-02-08T05:21:18.523Z,56.80
2023-02-08T05:23:46.846Z,40.00
2023-02-08T05:26:13.916Z,39.40
2023-02-08T05:28:40.720Z,37.50
2023-02-08T05:31:18.427Z,31.20
2023-02-08T05:33:45.563Z,31.00
2023-02-08T05:36:12.630Z,28.80
2023-02-08T05:38:39.433Z,34.50
2023-02-08T05:41:06.364Z,38.90
2023-02-08T05:43:33.321Z,59.10
2023-02-08T05:46:00.236Z,57.00
2023-02-08T05:48:27.254Z,58.30
2023-02-08T05:50:54.460Z,53.40
2023-02-08T05:53:21.291Z,42.00
2023-02-08T05:55:48.850Z,53.10
2023-02-08T05:58:16.338Z,53.70
2023-02-08T06:00:44.050Z,50.20
2023-02-08T06:03:11.710Z,46.00
2023-02-08T06:05:40.246Z,41.50
2023-02-08T06:08:07.844Z,34.10
2023-02-08T06:10:35.626Z,28.50
2023-02-08T06:13:03.218Z,37.90
2023-02-08T06:15:30.330Z,29.70
2023-02-08T06:17:57.296Z,25.70
2023-02-08T06:20:24.250Z,44.90
2023-02-08T06:22:51.136Z,37.10
2023-02-08T06:25:18.090Z,29.70
2023-02-08T06:27:45.003Z,24.50
2023-02-08T06:30:13.112Z,32.40
2023-02-08T06:32:40.017Z,27.30
2023-02-08T06:35:07.834Z,24.80
2023-02-08T06:37:34.708Z,25.10
2023-02-08T06:40:02.169Z,31.50
2023-02-08T06:42:29.118Z,28.20
2023-02-08T06:44:56.140Z,24.30
2023-02-08T06:47:24.071Z,25.80
2023-02-08T06:49:51.640Z,25.60
2023-02-08T06:52:19.364Z,27.00
2023-02-08T06:54:46.241Z,24.70
2023-02-08T06:57:13.506Z,25.00
2023-02-08T06:59:42.029Z,24.80
2023-02-08T07:02:18.552Z,30.90
2023-02-08T07:04:45.784Z,21.20
2023-02-08T07:07:13.905Z,22.90
2023-02-08T07:09:40.846Z,21.70
2023-02-08T07:12:08.225Z,20.50
2023-02-08T07:14:39.279Z,23.70
2023-02-08T07:17:06.677Z,25.30
2023-02-08T07:19:33.602Z,20.60
2023-02-08T07:22:07.252Z,24.50
2023-02-08T07:24:43.335Z,20.70
2023-02-08T07:27:12.812Z,41.90
2023-02-08T07:29:40.608Z,28.80
2023-02-08T07:32:08.615Z,26.00
2023-02-08T07:34:37.385Z,25.20
2023-02-08T07:37:05.225Z,25.00
2023-02-08T07:39:32.454Z,23.80
2023-02-08T07:41:59.813Z,22.80
2023-02-08T07:44:28.407Z,19.00
2023-02-08T07:46:55.244Z,21.40
2023-02-08T07:49:22.270Z,19.20
2023-02-08T07:51:49.204Z,16.90
2023-02-08T07:54:16.262Z,18.70
2023-02-08T07:56:43.040Z,15.60
2023-02-08T07:59:10.579Z,14.80
2023-02-08T08:01:37.492Z,15.30
2023-02-08T08:04:04.751Z,16.60
2023-02-08T08:06:31.928Z,21.00
2023-02-08T08:08:58.825Z,20.00
2023-02-08T08:11:25.896Z,23.60
2023-02-08T08:13:53.379Z,20.80
2023-02-08T08:16:20.702Z,14.70
2023-02-08T08:18:47.858Z,15.60
2023-02-08T08:21:16.851Z,13.40
2023-02-08T08:23:44.212Z,14.90
2023-02-08T08:26:14.607Z,15.90
2023-02-08T08:28:42.221Z,16.90
2023-02-08T08:31:18.332Z,16.20
2023-02-08T08:33:45.631Z,19.90
2023-02-08T08:36:13.073Z,22.70
2023-02-08T08:38:41.192Z,21.30
2023-02-08T08:41:10.367Z,21.40
2023-02-08T08:43:37.674Z,17.40
2023-02-08T08:46:09.116Z,14.80
2023-02-08T08:48:37.223Z,15.60
2023-02-08T08:51:04.922Z,14.40
2023-02-08T08:53:31.829Z,12.20
2023-02-08T08:55:58.932Z,12.80
2023-02-08T08:58:25.919Z,14.10
2023-02-08T09:00:54.262Z,12.60
2023-02-08T09:03:21.236Z,10.70
2023-02-08T09:05:48.193Z,14.90
2023-02-08T09:08:15.224Z,12.20
2023-02-08T09:10:42.464Z,13.90
2023-02-08T09:13:10.631Z,13.00
2023-02-08T09:15:41.717Z,14.40
2023-02-08T09:18:08.614Z,10.80
2023-02-08T09:20:38.320Z,12.60
2023-02-08T09:23:05.481Z,9.90
2023-02-08T09:25:33.642Z,12.90
2023-02-08T09:28:00.705Z,11.30
2023-02-08T09:30:27.625Z,13.40
2023-02-08T09:32:54.519Z,10.20
2023-02-08T09:35:21.407Z,8.50
2023-02-08T09:37:48.288Z,13.50
2023-02-08T09:40:25.303Z,7.80
2023-02-08T09:43:01.686Z,8.60
2023-02-08T09:46:03.575Z,9.00
2023-02-08T09:48:39.622Z,9.70
2023-02-08T09:51:29.195Z,9.00
2023-02-08T09:54:07.577Z,11.40
2023-02-08T09:56:40.713Z,12.40
2023-02-08T09:59:16.245Z,12.20
2023-02-08T10:01:43.605Z,13.60
2023-02-08T10:04:40.323Z,10.00
2023-02-08T10:07:11.345Z,8.60
2023-02-08T10:09:38.651Z,9.90
2023-02-08T10:12:41.209Z,11.40
2023-02-08T10:15:23.193Z,10.00
2023-02-08T10:17:59.303Z,12.30
2023-02-08T10:20:38.640Z,7.30
2023-02-08T10:23:22.426Z,9.80
2023-02-08T10:26:08.506Z,10.70
2023-02-08T10:28:49.318Z,22.20
2023-02-08T10:31:35.104Z,41.20
2023-02-08T10:34:16.934Z,44.10
2023-02-08T10:36:44.295Z,23.90
2023-02-08T10:39:22.614Z,102.90
2023-02-08T10:41:51.615Z,84.10
2023-02-08T10:44:40.003Z,31.70
2023-02-08T10:47:47.311Z,20.60
2023-02-08T10:50:21.576Z,19.10
2023-02-08T10:52:49.392Z,21.30
2023-02-08T10:55:19.684Z,60.60
2023-02-08T10:57:49.639Z,18.00
2023-02-08T11:02:52.857Z,42.70
2023-02-08T11:05:23.486Z,17.60
2023-02-08T11:08:09.638Z,11.40
2023-02-08T11:10:39.534Z,49.40
2023-02-08T11:16:02.684Z,8.40
2023-02-08T11:18:34.469Z,10.40
2023-02-08T11:21:08.390Z,14.00
2023-02-08T11:23:40.219Z,8.90
2023-02-08T11:26:23.004Z,16.70
2023-02-08T11:29:06.239Z,19.50
2023-02-08T11:31:35.362Z,23.70
2023-02-08T11:34:11.635Z,10.20
2023-02-08T11:36:48.880Z,11.40
2023-02-08T11:39:26.775Z,38.00
2023-02-08T11:41:58.342Z,13.50
2023-02-08T11:44:32.724Z,8.40
2023-02-08T11:47:02.884Z,8.20
2023-02-08T11:49:54.375Z,8.40
2023-02-08T11:52:25.139Z,10.70
2023-02-08T11:54:53.241Z,13.40
2023-02-08T11:57:28.088Z,17.80
2023-02-08T12:00:18.006Z,30.00
2023-02-08T12:05:18.090Z,48.80
2023-02-08T12:08:00.052Z,9.70
2023-02-08T12:10:27.101Z,44.30
2023-02-08T12:13:09.095Z,61.30
2023-02-08T12:15:57.788Z,8.60
2023-02-08T12:18:44.158Z,6.40
2023-02-08T12:21:17.340Z,9.40
2023-02-08T12:23:50.674Z,5.20
2023-02-08T12:26:25.965Z,4.90
2023-02-08T12:28:55.850Z,5.80
2023-02-08T12:31:25.618Z,10.60
2023-02-08T12:34:04.491Z,43.50
2023-02-08T12:36:50.018Z,8.90
2023-02-08T12:39:58.668Z,6.10
2023-02-08T12:42:34.377Z,29.00
2023-02-08T12:45:28.179Z,70.20
2023-02-08T12:48:05.096Z,90.70
2023-02-08T12:51:01.829Z,114.50
2023-02-08T12:53:38.032Z,112.30
2023-02-08T12:56:13.457Z,64.00
2023-02-08T12:58:48.556Z,84.80
2023-02-08T13:01:21.509Z,15.80
2023-02-08T13:04:04.241Z,73.80
2023-02-08T13:06:39.762Z,62.80
2023-02-08T13:09:49.163Z,53.30
2023-02-08T13:12:24.145Z,78.40
2023-02-08T13:14:57.748Z,13.10
2023-02-08T13:17:29.923Z,17.70
2023-02-08T13:20:20.399Z,18.00
2023-02-08T13:22:48.679Z,9.70
2023-02-08T13:25:23.928Z,8.90
2023-02-08T13:27:51.846Z,21.10
2023-02-08T13:30:20.999Z,10.30
2023-02-08T13:32:50.945Z,9.10
2023-02-08T13:38:22.821Z,8.50
2023-02-08T13:41:15.177Z,7.60
2023-02-08T13:43:55.263Z,9.00
2023-02-08T13:46:24.950Z,25.20
2023-02-08T13:49:02.536Z,13.80
2023-02-08T13:51:35.567Z,11.20
2023-02-08T13:54:02.444Z,13.10
2023-02-08T13:56:52.314Z,33.90
2023-02-08T13:59:34.251Z,27.70
2023-02-08T14:02:14.135Z,13.20
2023-02-08T14:04:50.613Z,10.10
2023-02-08T14:07:24.320Z,9.70
2023-02-08T14:09:54.003Z,12.00
2023-02-08T14:12:28.220Z,18.70
2023-02-08T14:15:16.462Z,17.90
2023-02-08T14:17:49.847Z,14.60
2023-02-08T14:20:22.343Z,10.90
2023-02-08T14:22:52.791Z,10.10
2023-02-08T14:25:43.734Z,10.10
2023-02-08T14:28:26.613Z,12.10
2023-02-08T14:30:59.091Z,60.00
2023-02-08T14:33:34.259Z,22.60
2023-02-08T14:36:07.609Z,17.10
2023-02-08T14:38:51.847Z,11.30
2023-02-08T14:42:09.077Z,9.60
2023-02-08T14:44:38.850Z,10.00
2023-02-08T14:47:27.109Z,13.60
2023-02-08T14:50:16.973Z,9.00
2023-02-08T14:55:20.369Z,8.80
2023-02-08T14:57:48.040Z,74.70
2023-02-08T15:00:23.304Z,138.40
2023-02-08T15:02:50.860Z,122.30
2023-02-08T15:05:34.198Z,182.40
2023-02-08T15:08:02.289Z,88.60
2023-02-08T15:10:30.721Z,146.80
2023-02-08T15:13:02.548Z,153.10
2023-02-08T15:15:39.756Z,210.50
2023-02-08T15:18:18.687Z,14.70
2023-02-08T15:20:56.183Z,11.50
2023-02-08T15:23:24.773Z,16.80
2023-02-08T15:26:23.448Z,15.40
2023-02-08T15:28:50.404Z,14.00
2023-02-08T15:31:30.503Z,16.50
2023-02-08T15:33:59.662Z,18.00
2023-02-08T15:36:34.274Z,19.10
2023-02-08T15:39:10.230Z,37.60
2023-02-08T15:41:38.399Z,37.50
2023-02-08T15:44:23.761Z,14.40
2023-02-08T15:46:55.918Z,91.30
2023-02-08T15:49:29.041Z,55.10
2023-02-08T15:51:57.242Z,191.40
2023-02-08T15:54:25.109Z,110.60
2023-02-08T15:56:59.648Z,162.00
2023-02-08T15:59:33.216Z,151.70
2023-02-08T16:02:28.372Z,175.30
2023-02-08T16:04:56.991Z,116.80
2023-02-08T16:07:48.211Z,152.20
2023-02-08T16:10:52.905Z,208.30
2023-02-08T16:13:28.048Z,205.70
2023-02-08T16:16:08.614Z,215.60
2023-02-08T16:18:57.455Z,235.00
2023-02-08T16:21:43.242Z,209.10
2023-02-08T16:24:13.476Z,209.20
2023-02-08T16:26:56.680Z,139.60
2023-02-08T16:29:31.413Z,113.30
2023-02-08T16:32:20.749Z,97.30
2023-02-08T16:34:48.029Z,104.10
2023-02-08T16:37:26.789Z,134.30
2023-02-08T16:40:00.767Z,177.90
2023-02-08T16:42:30.880Z,178.80
2023-02-08T16:45:20.704Z,179.40
2023-02-08T16:47:56.784Z,201.20
2023-02-08T16:50:26.466Z,352.70
2023-02-08T16:53:02.592Z,373.30
2023-02-08T16:55:31.946Z,140.40
2023-02-08T16:57:59.670Z,122.60
2023-02-08T17:00:35.452Z,116.90
2023-02-08T17:03:02.789Z,189.00
2023-02-08T17:05:37.912Z,201.50
2023-02-08T17:08:08.907Z,161.20
2023-02-08T17:10:36.331Z,178.10
2023-02-08T17:13:19.347Z,224.40
2023-02-08T17:15:49.235Z,381.70
2023-02-08T17:18:17.239Z,244.70
2023-02-08T17:20:45.016Z,272.80
2023-02-08T17:23:13.173Z,389.60
2023-02-08T17:25:40.308Z,187.10
2023-02-08T17:28:12.216Z,330.10
2023-02-08T17:30:41.621Z,205.30
2023-02-08T17:33:10.394Z,163.10
2023-02-08T17:35:39.193Z,275.70
2023-02-08T17:38:06.579Z,307.10
2023-02-08T17:40:38.605Z,297.90
2023-02-08T17:43:06.770Z,266.20
2023-02-08T17:45:42.231Z,284.70
2023-02-08T17:48:10.313Z,294.80
2023-02-08T17:50:37.361Z,292.30
2023-02-08T17:53:04.448Z,280.10
2023-02-08T17:55:31.779Z,268.20
2023-02-08T17:57:58.897Z,261.30
2023-02-08T18:00:26.316Z,247.30
2023-02-08T18:02:55.048Z,248.80
2023-02-08T18:05:27.873Z,238.00
2023-02-08T18:07:56.650Z,248.90
2023-02-08T18:10:25.086Z,242.30
2023-02-08T18:12:52.419Z,242.60
2023-02-08T18:15:21.604Z,234.60
2023-02-08T18:17:50.693Z,235.60
2023-02-08T18:20:18.666Z,225.00
2023-02-08T18:22:46.652Z,224.20
2023-02-08T18:25:16.078Z,216.60
2023-02-08T18:27:43.062Z,221.50
2023-02-08T18:30:11.582Z,225.60
2023-02-08T18:32:38.848Z,229.50
2023-02-08T18:35:07.685Z,245.90
2023-02-08T18:37:36.459Z,238.30
2023-02-08T18:40:04.721Z,248.50
2023-02-08T18:42:33.412Z,249.70
2023-02-08T18:45:01.441Z,276.00
2023-02-08T18:47:28.396Z,279.60
2023-02-08T18:49:56.688Z,277.70
2023-02-08T18:52:26.315Z,292.60
2023-02-08T18:54:53.371Z,381.80
2023-02-08T18:57:21.063Z,387.50
2023-02-08T18:59:48.189Z,345.00
2023-02-08T19:02:21.325Z,348.10
2023-02-08T19:04:48.962Z,348.00
2023-02-08T19:07:16.429Z,325.00
2023-02-08T19:09:44.287Z,349.80
2023-02-08T19:12:15.819Z,345.00
2023-02-08T19:14:43.994Z,331.20
2023-02-08T19:17:13.592Z,341.20
2023-02-08T19:19:42.220Z,359.90
2023-02-08T19:22:10.186Z,337.10
2023-02-08T19:24:37.363Z,323.70
2023-02-08T19:27:04.534Z,284.40
2023-02-08T19:29:34.061Z,287.30
2023-02-08T19:32:01.563Z,309.10
2023-02-08T19:34:29.139Z,367.70
2023-02-08T19:36:56.201Z,384.00
2023-02-08T19:39:28.091Z,435.10
2023-02-08T19:41:55.975Z,408.20
2023-02-08T19:44:23.643Z,382.20
2023-02-08T19:46:54.144Z,351.50
2023-02-08T19:49:22.692Z,365.10
2023-02-08T19:51:50.406Z,341.70
2023-02-08T19:54:19.400Z,379.90
2023-02-08T19:56:47.787Z,438.40
2023-02-08T19:59:21.327Z,427.80
2023-02-08T20:01:48.426Z,398.20
2023-02-08T20:04:16.396Z,405.00
2023-02-08T20:06:45.189Z,428.80
2023-02-08T20:09:13.877Z,392.30
2023-02-08T20:11:54.971Z,357.60
2023-02-08T20:14:24.133Z,333.10
2023-02-08T20:16:51.699Z,296.30
2023-02-08T20:19:19.591Z,261.40
2023-02-08T20:21:46.639Z,335.10
2023-02-08T20:24:14.539Z,343.90
2023-02-08T20:26:44.156Z,383.20
2023-02-08T20:31:41.160Z,355.80
2023-02-08T20:34:12.961Z,314.70
2023-02-08T20:36:49.539Z,295.00
2023-02-08T20:39:20.820Z,324.40
2023-02-08T20:41:48.338Z,376.30
2023-02-08T20:44:18.153Z,378.80
2023-02-08T20:46:46.746Z,319.50
2023-02-08T20:49:15.525Z,335.50
2023-02-08T20:51:44.121Z,333.30
2023-02-08T20:54:11.791Z,364.60
2023-02-08T20:56:40.070Z,340.40
2023-02-08T20:59:10.942Z,313.40
2023-02-08T21:01:38.830Z,300.50
2023-02-08T21:04:05.946Z,315.30
2023-02-08T21:06:35.808Z,307.90
2023-02-08T21:09:06.678Z,287.80
2023-02-08T21:11:34.663Z,262.60
2023-02-08T21:14:02.559Z,247.30
2023-02-08T21:16:32.257Z,243.60
2023-02-08T21:19:02.196Z,271.00
2023-02-08T21:21:30.146Z,285.90
2023-02-08T21:23:58.135Z,297.90
2023-02-08T21:26:26.490Z,303.60
2023-02-08T21:28:55.913Z,278.70
2023-02-08T21:33:52.086Z,278.60
2023-02-08T21:36:23.825Z,277.00
2023-02-08T21:38:51.456Z,272.90
2023-02-08T21:41:30.628Z,294.10
2023-02-08T21:43:59.516Z,250.00
2023-02-08T21:46:28.484Z,252.60
2023-02-08T21:49:15.717Z,280.70
2023-02-08T21:52:03.261Z,263.40
2023-02-08T21:54:43.066Z,240.70
2023-02-08T21:57:10.042Z,230.00
2023-02-08T21:59:37.818Z,221.60
2023-02-08T22:02:25.921Z,229.90
2023-02-08T22:05:14.485Z,271.90
2023-02-08T22:07:44.937Z,250.40
2023-02-08T22:10:13.898Z,258.50
2023-02-08T22:12:42.220Z,271.70
2023-02-08T22:15:14.635Z,252.50
2023-02-08T22:17:41.918Z,359.00
2023-02-08T22:20:10.344Z,299.90
2023-02-08T22:22:37.658Z,251.10
2023-02-08T22:25:05.136Z,242.70
2023-02-08T22:27:32.275Z,241.80
2023-02-08T22:29:59.433Z,229.50
2023-02-08T22:32:26.495Z,207.70
2023-02-08T22:34:53.740Z,222.00
2023-02-08T22:37:20.754Z,223.90
2023-02-08T22:39:47.957Z,237.20
2023-02-08T22:42:15.218Z,228.10
2023-02-08T22:44:44.538Z,239.20
2023-02-08T22:47:13.426Z,256.60
2023-02-08T22:49:40.884Z,304.00
2023-02-08T22:52:08.952Z,243.50
2023-02-08T22:54:36.326Z,181.90
2023-02-08T22:57:04.587Z,197.70
2023-02-08T22:59:32.164Z,190.40
2023-02-08T23:02:00.471Z,170.70
2023-02-08T23:04:28.204Z,193.50
2023-02-08T23:06:55.677Z,165.00
2023-02-08T23:09:23.358Z,165.70
2023-02-08T23:11:51.001Z,170.60
2023-02-08T23:14:18.486Z,174.30
2023-02-08T23:16:45.732Z,223.40
2023-02-08T23:19:18.019Z,168.10
2023-02-08T23:21:45.084Z,164.50
2023-02-08T23:24:12.543Z,194.40
2023-02-08T23:26:39.976Z,169.60
2023-02-08T23:29:07.014Z,164.40
2023-02-08T23:31:34.463Z,120.50
2023-02-08T23:34:01.624Z,124.10
2023-02-08T23:36:28.589Z,103.60
2023-02-08T23:38:55.529Z,109.10
2023-02-08T23:41:23.813Z,115.40
2023-02-08T23:43:54.775Z,122.40
2023-02-08T23:46:24.714Z,146.30
2023-02-08T23:48:52.342Z,139.20
2023-02-08T23:51:20.867Z,140.20
2023-02-08T23:53:48.603Z,134.10
2023-02-08T23:56:20.064Z,122.10
2023-02-08T23:58:49.866Z,115.40
